Time;durP1;ratioP1;P1;durP2;ratioP2;P2;SDS_P1;SDS_P2;PMS_P1;PMS_P2;Temp;Humidity;BMP_temperature;BMP_pressure;BME280_temperature;BME280_humidity;BME280_pressure;Samples;Min_cycle;Max_cycle;Signal;HPM_P1;HPM_P2
2022/05/08 00:02:13;;;;;;;16.98;9.07;;;13.10;99.90;;;;;;5010922;28;20022;-77
2022/05/08 00:04:38;;;;;;;19.00;9.90;;;13.10;99.90;;;;;;5012208;28;20105;-77
2022/05/08 00:07:04;;;;;;;16.92;9.60;;;13.10;99.90;;;;;;5012364;28;20032;-77
2022/05/08 00:09:30;;;;;;;19.30;9.48;;;13.10;99.90;;;;;;5011870;28;20030;-78
2022/05/08 00:11:56;;;;;;;19.77;9.20;;;13.10;99.90;;;;;;5011995;28;20018;-77
2022/05/08 00:14:22;;;;;;;16.70;8.70;;;13.10;99.90;;;;;;5012026;28;20050;-77
2022/05/08 00:16:47;;;;;;;19.02;8.70;;;13.00;99.90;;;;;;5012550;28;20030;-78
2022/05/08 00:19:13;;;;;;;14.88;7.95;;;13.00;99.90;;;;;;5011914;28;20054;-77
2022/05/08 00:21:41;;;;;;;20.92;8.80;;;13.00;99.90;;;;;;5012324;28;20068;-78
2022/05/08 00:24:07;;;;;;;13.98;7.80;;;12.90;99.90;;;;;;5011667;28;20040;-77
2022/05/08 00:26:32;;;;;;;18.58;7.50;;;12.90;99.90;;;;;;5011777;28;20022;-77
2022/05/08 00:28:58;;;;;;;18.30;8.45;;;12.80;99.90;;;;;;5011753;28;20145;-77
2022/05/08 00:31:24;;;;;;;18.52;8.90;;;12.80;99.90;;;;;;5011870;28;20497;-77
2022/05/08 00:33:50;;;;;;;15.23;8.02;;;12.80;99.90;;;;;;5011418;28;20100;-77
2022/05/08 00:36:16;;;;;;;17.65;8.13;;;12.80;99.90;;;;;;5011734;28;20436;-77
2022/05/08 00:38:42;;;;;;;20.80;9.05;;;12.80;99.90;;;;;;5011585;28;20033;-77
2022/05/08 00:41:08;;;;;;;20.00;8.48;;;12.70;99.90;;;;;;5011389;28;20026;-78
2022/05/08 00:43:35;;;;;;;14.98;8.27;;;12.70;99.90;;;;;;5011741;28;20088;-77
2022/05/08 00:46:09;;;;;;;24.00;9.13;;;12.70;99.90;;;;;;5011661;28;20025;-78
2022/05/08 00:48:35;;;;;;;18.02;7.53;;;12.70;99.90;;;;;;5011433;28;20026;-78
2022/05/08 00:51:02;;;;;;;20.48;8.30;;;12.60;99.90;;;;;;5010434;28;20022;-78
2022/05/08 00:53:33;;;;;;;22.60;7.68;;;12.60;99.90;;;;;;5011480;28;20403;-78
2022/05/08 00:56:01;;;;;;;19.42;7.95;;;12.50;99.90;;;;;;5011410;28;20394;-78
2022/05/08 00:58:26;;;;;;;22.40;7.72;;;12.40;99.90;;;;;;5011123;28;20458;-77
2022/05/08 01:00:52;;;;;;;25.42;8.02;;;12.40;99.90;;;;;;5011141;28;20065;-77
2022/05/08 01:03:18;;;;;;;22.35;8.05;;;12.30;99.90;;;;;;5011035;28;20029;-78
2022/05/08 01:05:45;;;;;;;24.05;7.95;;;12.30;99.90;;;;;;5011082;28;20033;-78
2022/05/08 01:08:12;;;;;;;23.00;7.70;;;12.20;99.90;;;;;;5011566;28;20037;-77
2022/05/08 01:10:38;;;;;;;23.42;7.38;;;12.10;99.90;;;;;;5011009;28;20045;-77
2022/05/08 01:13:05;;;;;;;20.35;7.47;;;12.10;99.90;;;;;;5011157;28;20032;-78
2022/05/08 01:15:42;;;;;;;25.58;7.20;;;12.00;99.90;;;;;;5010649;28;20026;-78
2022/05/08 01:18:08;;;;;;;22.45;7.53;;;12.00;99.90;;;;;;5011007;28;20030;-77
2022/05/08 01:20:34;;;;;;;20.75;6.95;;;11.90;99.90;;;;;;5010835;28;20052;-77
2022/05/08 01:23:02;;;;;;;25.15;7.72;;;11.90;99.90;;;;;;5010797;28;20400;-77
2022/05/08 01:25:27;;;;;;;19.92;7.82;;;11.90;99.90;;;;;;5010896;28;20033;-78
2022/05/08 01:27:53;;;;;;;20.98;7.45;;;11.80;99.90;;;;;;5010694;28;20026;-77
2022/05/08 01:30:19;;;;;;;24.77;8.40;;;11.80;99.90;;;;;;5011024;28;20029;-78
2022/05/08 01:32:44;;;;;;;24.08;7.63;;;11.70;99.90;;;;;;5010920;28;20474;-77
2022/05/08 01:35:10;;;;;;;22.45;7.72;;;11.70;99.90;;;;;;5010886;28;20488;-78
2022/05/08 01:37:35;;;;;;;19.92;7.20;;;11.70;99.90;;;;;;5010884;28;20387;-78
2022/05/08 01:40:01;;;;;;;20.30;7.00;;;11.60;99.90;;;;;;5010941;28;20064;-78
2022/05/08 01:42:27;;;;;;;29.48;7.57;;;11.60;99.90;;;;;;5010629;28;20030;-78
2022/05/08 01:44:53;;;;;;;27.50;7.70;;;11.50;99.90;;;;;;5011516;28;20037;-77
2022/05/08 01:50:04;;;;;;;29.00;7.75;;;11.50;99.90;;;;;;5030222;28;20033;-78
2022/05/08 01:52:29;;;;;;;28.83;7.38;;;11.50;99.90;;;;;;5030242;28;20025;-77
2022/05/08 01:54:55;;;;;;;28.33;7.35;;;11.50;99.90;;;;;;5030039;28;20036;-78
2022/05/08 01:57:20;;;;;;;23.63;7.07;;;11.40;99.90;;;;;;5030558;28;20025;-77
2022/05/08 01:59:46;;;;;;;23.92;7.18;;;11.40;99.90;;;;;;5030152;28;20014;-77
2022/05/08 02:02:11;;;;;;;21.42;7.07;;;11.40;99.90;;;;;;5031766;28;20018;-77
2022/05/08 02:04:37;;;;;;;17.77;6.82;;;11.40;99.90;;;;;;5034458;28;20029;-77
2022/05/08 02:07:03;;;;;;;25.67;7.30;;;11.30;99.90;;;;;;5034432;28;20429;-77
2022/05/08 02:09:30;;;;;;;25.20;7.57;;;11.30;99.90;;;;;;5034714;28;20049;-77
2022/05/08 02:11:55;;;;;;;27.67;7.25;;;11.30;99.90;;;;;;5033885;28;20032;-77
2022/05/08 02:14:21;;;;;;;27.77;7.28;;;11.30;99.90;;;;;;5033900;28;20428;-78
2022/05/08 02:16:46;;;;;;;30.92;7.55;;;11.20;99.90;;;;;;5034288;28;20029;-78
2022/05/08 02:19:12;;;;;;;26.77;7.07;;;11.20;99.90;;;;;;5033893;28;20018;-77
2022/05/08 02:21:38;;;;;;;24.10;6.70;;;11.10;99.90;;;;;;5034181;28;20100;-77
2022/05/08 02:24:03;;;;;;;31.63;7.80;;;11.10;99.90;;;;;;5033948;28;20029;-78
2022/05/08 02:26:29;;;;;;;33.13;7.65;;;11.10;99.90;;;;;;5032228;28;20033;-78
2022/05/08 02:28:55;;;;;;;31.63;7.22;;;11.10;99.90;;;;;;5034011;28;20071;-77
2022/05/08 02:31:20;;;;;;;22.33;6.97;;;11.00;99.90;;;;;;5033618;28;20056;-78
2022/05/08 02:33:46;;;;;;;27.27;6.75;;;11.00;99.90;;;;;;5033853;28;20060;-77
2022/05/08 02:36:12;;;;;;;30.42;7.00;;;11.00;99.90;;;;;;5033674;28;20059;-77
2022/05/08 02:38:39;;;;;;;26.65;6.57;;;11.00;99.90;;;;;;5033785;28;20449;-77
2022/05/08 02:41:05;;;;;;;25.98;6.68;;;10.90;99.90;;;;;;5019314;28;20017;-77
2022/05/08 02:43:30;;;;;;;24.63;6.68;;;10.90;99.90;;;;;;5013419;28;20041;-77
2022/05/08 02:45:59;;;;;;;27.00;7.45;;;10.90;99.90;;;;;;5013334;28;20018;-77
2022/05/08 02:48:25;;;;;;;21.48;6.22;;;10.80;99.90;;;;;;5013609;28;20545;-77
2022/05/08 02:50:51;;;;;;;27.02;6.53;;;10.90;99.90;;;;;;5013648;28;20033;-78
2022/05/08 02:53:17;;;;;;;26.92;6.90;;;10.80;99.90;;;;;;5013535;28;20512;-77
2022/05/08 02:58:32;;;;;;;23.13;6.35;;;10.80;99.90;;;;;;5013517;28;20153;-77
2022/05/08 03:01:01;;;;;;;23.50;6.43;;;10.80;99.90;;;;;;5013632;28;20033;-77
2022/05/08 03:03:28;;;;;;;20.73;6.38;;;10.80;99.90;;;;;;5013228;28;20045;-77
2022/05/08 03:05:54;;;;;;;26.02;6.13;;;10.70;99.90;;;;;;5013547;28;20053;-77
2022/05/08 03:08:20;;;;;;;24.58;6.75;;;10.70;99.90;;;;;;5013147;28;20650;-77
2022/05/08 03:13:36;;;;;;;31.10;6.28;;;10.70;99.90;;;;;;5012813;28;20041;-76
2022/05/08 03:16:03;;;;;;;23.08;6.65;;;10.70;99.90;;;;;;5013100;28;20064;-78
2022/05/08 03:18:29;;;;;;;21.90;6.90;;;10.70;99.90;;;;;;5013051;28;20029;-77
2022/05/08 03:20:54;;;;;;;25.52;6.40;;;10.60;99.90;;;;;;5012836;28;20054;-77
2022/05/08 03:23:20;;;;;;;24.20;6.68;;;10.60;99.90;;;;;;5012754;28;20030;-77
2022/05/08 03:25:46;;;;;;;24.30;6.72;;;10.60;99.90;;;;;;5013188;28;20026;-77
2022/05/08 03:28:15;;;;;;;24.42;5.88;;;10.60;99.90;;;;;;5012764;28;20048;-77
2022/05/08 03:30:41;;;;;;;28.08;6.57;;;10.50;99.90;;;;;;5012692;28;20049;-78
2022/05/08 03:33:08;;;;;;;28.42;6.53;;;10.50;99.90;;;;;;5012636;28;20517;-77
2022/05/08 03:35:34;;;;;;;21.88;6.03;;;10.50;99.90;;;;;;5013124;28;20030;-77
2022/05/08 03:38:00;;;;;;;25.73;6.05;;;10.50;99.90;;;;;;5011428;28;20606;-77
2022/05/08 03:40:26;;;;;;;24.17;6.00;;;10.50;99.90;;;;;;5011395;28;20095;-77
2022/05/08 03:42:53;;;;;;;28.90;6.22;;;10.40;99.90;;;;;;5012436;28;20019;-77
2022/05/08 03:45:19;;;;;;;25.33;5.93;;;10.50;99.90;;;;;;5012606;28;20037;-77
2022/05/08 03:47:44;;;;;;;25.33;6.00;;;10.50;99.90;;;;;;5012252;28;20024;-77
2022/05/08 03:50:10;;;;;;;21.27;5.90;;;10.40;99.90;;;;;;5012467;28;20474;-77
2022/05/08 03:52:36;;;;;;;29.67;6.45;;;10.40;99.90;;;;;;5012260;28;20026;-77
2022/05/08 03:55:02;;;;;;;23.38;6.13;;;10.40;99.90;;;;;;5012475;28;20034;-77
2022/05/08 03:57:29;;;;;;;29.20;6.60;;;10.40;99.90;;;;;;5011025;28;20109;-77
2022/05/08 03:59:55;;;;;;;21.23;5.68;;;10.40;99.90;;;;;;5012360;28;20029;-77
2022/05/08 04:02:20;;;;;;;25.23;5.68;;;10.40;99.90;;;;;;5012017;28;20022;-77
2022/05/08 04:04:46;;;;;;;23.67;5.13;;;10.30;99.90;;;;;;5012071;28;20095;-77
2022/05/08 04:07:13;;;;;;;25.27;5.25;;;10.30;99.90;;;;;;5012356;28;20022;-77
2022/05/08 04:09:39;;;;;;;22.63;5.63;;;10.30;99.90;;;;;;5012250;28;20021;-77
2022/05/08 04:12:04;;;;;;;25.98;5.10;;;10.30;99.90;;;;;;5012034;28;20490;-77
2022/05/08 04:14:30;;;;;;;24.92;5.03;;;10.20;99.90;;;;;;5011972;28;20029;-78
2022/05/08 04:16:56;;;;;;;25.30;5.43;;;10.20;99.90;;;;;;5012286;28;20421;-77
2022/05/08 04:19:22;;;;;;;28.75;5.38;;;10.20;99.90;;;;;;5011689;28;20136;-77
2022/05/08 04:21:47;;;;;;;32.10;5.13;;;10.10;99.90;;;;;;5012156;28;20045;-78
2022/05/08 04:24:19;;;;;;;22.70;4.93;;;10.10;99.90;;;;;;5011726;28;20469;-77
2022/05/08 04:26:46;;;;;;;27.38;4.60;;;10.10;99.90;;;;;;5011976;28;20028;-77
2022/05/08 04:29:11;;;;;;;25.38;4.75;;;10.10;99.90;;;;;;5011779;28;20077;-77
2022/05/08 04:31:37;;;;;;;33.28;5.40;;;10.10;99.90;;;;;;5010191;28;20438;-77
2022/05/08 04:34:03;;;;;;;25.42;5.35;;;10.10;99.90;;;;;;5011744;28;20021;-77
2022/05/08 04:36:29;;;;;;;23.02;4.50;;;10.20;99.90;;;;;;5011749;28;20105;-77
2022/05/08 04:38:55;;;;;;;23.77;4.85;;;10.20;99.90;;;;;;5010292;28;20018;-77
2022/05/08 04:41:20;;;;;;;30.92;4.82;;;10.20;99.90;;;;;;5011696;28;20088;-77
2022/05/08 04:43:46;;;;;;;25.00;4.88;;;10.20;99.90;;;;;;5011361;28;20040;-77
2022/05/08 04:46:12;;;;;;;27.27;5.30;;;10.20;99.90;;;;;;5011525;28;20104;-77
2022/05/08 04:48:38;;;;;;;20.38;4.45;;;10.20;99.90;;;;;;5011461;28;20573;-77
2022/05/08 04:51:05;;;;;;;20.25;4.28;;;10.20;99.90;;;;;;5011397;28;20430;-77
2022/05/08 04:53:31;;;;;;;27.27;4.63;;;10.10;99.90;;;;;;5011760;28;20022;-77
2022/05/08 04:55:57;;;;;;;25.52;4.53;;;10.10;99.90;;;;;;5011273;28;20136;-77
2022/05/08 04:58:23;;;;;;;25.92;4.80;;;10.20;99.90;;;;;;5011256;28;20076;-77
2022/05/08 05:00:49;;;;;;;22.27;4.40;;;10.20;99.90;;;;;;5011167;28;20021;-77
2022/05/08 05:03:14;;;;;;;30.63;4.78;;;10.20;99.90;;;;;;5011158;28;20538;-78
2022/05/08 05:05:40;;;;;;;24.52;4.55;;;10.20;99.90;;;;;;5011255;28;20046;-77
2022/05/08 05:08:06;;;;;;;29.02;4.90;;;10.20;99.90;;;;;;5011159;28;20413;-77
2022/05/08 05:10:32;;;;;;;25.85;4.55;;;10.20;99.90;;;;;;5009679;28;20489;-77
2022/05/08 05:12:58;;;;;;;33.25;5.28;;;10.20;99.90;;;;;;5011052;28;20033;-77
2022/05/08 05:15:24;;;;;;;25.95;4.97;;;10.20;99.90;;;;;;5010733;28;20096;-77
2022/05/08 05:17:52;;;;;;;20.98;4.88;;;10.20;99.90;;;;;;5010981;28;20201;-77
2022/05/08 05:20:17;;;;;;;21.70;4.60;;;10.30;99.90;;;;;;5010970;28;20137;-77
2022/05/08 05:22:43;;;;;;;27.65;4.53;;;10.30;99.90;;;;;;5009492;28;20122;-77
2022/05/08 05:25:08;;;;;;;22.80;5.03;;;10.30;99.90;;;;;;5009667;28;20018;-77
2022/05/08 05:27:34;;;;;;;30.63;4.55;;;10.30;99.90;;;;;;5009769;28;20021;-78
2022/05/08 05:30:01;;;;;;;24.92;4.55;;;10.40;99.90;;;;;;5010875;28;20525;-77
2022/05/08 05:32:27;;;;;;;27.05;5.03;;;10.40;99.90;;;;;;5011108;28;20125;-77
2022/05/08 05:34:52;;;;;;;28.65;5.00;;;10.40;99.90;;;;;;5011206;28;20146;-77
2022/05/08 05:37:18;;;;;;;25.73;4.30;;;10.40;99.90;;;;;;5010421;28;20029;-77
2022/05/08 05:39:43;;;;;;;21.40;4.78;;;10.50;99.90;;;;;;5010650;28;20028;-77
2022/05/08 05:42:09;;;;;;;24.50;4.93;;;10.50;99.90;;;;;;5009646;28;20018;-77
2022/05/08 05:44:35;;;;;;;29.35;5.10;;;10.50;99.90;;;;;;5009987;28;20034;-77
2022/05/08 05:49:44;;;;;;;19.52;4.35;;;10.50;99.90;;;;;;5009846;28;20104;-77
2022/05/08 05:52:10;;;;;;;23.65;4.72;;;10.50;99.90;;;;;;5010398;28;20425;-77
2022/05/08 05:54:36;;;;;;;24.15;4.97;;;10.60;99.90;;;;;;5008711;28;20462;-78
2022/05/08 05:57:02;;;;;;;24.70;5.50;;;10.60;99.90;;;;;;5006830;28;20033;-77
2022/05/08 05:59:28;;;;;;;23.55;4.55;;;10.60;99.90;;;;;;5010394;28;20025;-78
2022/05/08 06:01:53;;;;;;;25.33;4.80;;;10.60;99.90;;;;;;5010345;28;20017;-77
2022/05/08 06:04:19;;;;;;;26.67;5.03;;;10.70;99.90;;;;;;5009520;28;20034;-77
2022/05/08 06:06:44;;;;;;;25.25;4.97;;;10.70;99.90;;;;;;5007961;28;20104;-76
2022/05/08 06:09:10;;;;;;;27.50;4.45;;;10.70;99.90;;;;;;5011797;28;20025;-77
2022/05/08 06:11:35;;;;;;;22.05;4.90;;;10.70;99.90;;;;;;5016499;28;20389;-77
2022/05/08 06:14:01;;;;;;;23.90;5.38;;;10.80;99.90;;;;;;5013187;28;20026;-77
2022/05/08 06:16:26;;;;;;;36.70;5.78;;;10.80;99.90;;;;;;5014323;28;20030;-77
2022/05/08 06:18:52;;;;;;;26.25;5.18;;;10.90;99.90;;;;;;5010843;28;20053;-77
2022/05/08 06:21:17;;;;;;;29.30;5.03;;;10.90;99.90;;;;;;5008622;28;20050;-77
2022/05/08 06:23:43;;;;;;;22.40;5.32;;;11.00;99.90;;;;;;5010390;28;20038;-77
2022/05/08 06:26:09;;;;;;;24.00;4.78;;;11.00;99.90;;;;;;5008998;28;20076;-77
2022/05/08 06:28:34;;;;;;;21.05;4.35;;;11.10;99.90;;;;;;5010366;28;20505;-77
2022/05/08 06:31:00;;;;;;;28.73;4.90;;;11.10;99.90;;;;;;5010162;28;20052;-76
2022/05/08 06:33:26;;;;;;;21.35;4.40;;;11.20;99.90;;;;;;5010449;28;20028;-77
2022/05/08 06:35:52;;;;;;;22.48;4.68;;;11.20;99.90;;;;;;5010182;28;20486;-77
2022/05/08 06:38:17;;;;;;;18.88;4.47;;;11.30;99.90;;;;;;5010668;28;20109;-77
2022/05/08 06:40:45;;;;;;;28.38;4.57;;;11.30;99.90;;;;;;5010028;28;20474;-76
2022/05/08 06:43:10;;;;;;;23.58;4.55;;;11.40;99.90;;;;;;5010244;28;20038;-76
2022/05/08 06:45:36;;;;;;;24.13;4.20;;;11.50;99.90;;;;;;5010552;28;20026;-75
2022/05/08 06:48:02;;;;;;;22.40;4.68;;;11.50;99.90;;;;;;5013746;28;20070;-74
2022/05/08 06:50:30;;;;;;;19.08;4.28;;;11.60;99.90;;;;;;5021559;28;20557;-74
2022/05/08 06:52:55;;;;;;;27.77;4.93;;;11.70;99.90;;;;;;5028115;28;20025;-78
2022/05/08 06:55:21;;;;;;;24.60;4.03;;;11.70;99.90;;;;;;5029281;28;20021;-78
2022/05/08 06:57:47;;;;;;;19.40;4.10;;;11.80;99.90;;;;;;5026745;28;20052;-78
2022/05/08 07:02:57;;;;;;;19.33;4.23;;;11.90;99.90;;;;;;5018117;28;20045;-78
2022/05/08 07:05:23;;;;;;;25.65;4.03;;;12.00;99.90;;;;;;5027888;28;20018;-75
2022/05/08 07:07:48;;;;;;;24.17;4.00;;;12.10;99.90;;;;;;5027089;28;20101;-76
2022/05/08 07:10:14;;;;;;;20.67;4.00;;;12.20;99.90;;;;;;5027854;28;20103;-76
2022/05/08 07:12:39;;;;;;;23.95;4.30;;;12.30;99.90;;;;;;5030281;28;20025;-76
2022/05/08 07:15:06;;;;;;;22.40;3.75;;;12.40;99.90;;;;;;5032505;28;20124;-76
2022/05/08 07:17:32;;;;;;;20.88;3.67;;;12.40;99.90;;;;;;5020798;28;20454;-76
2022/05/08 07:19:58;;;;;;;20.63;3.95;;;12.40;99.90;;;;;;5013623;28;20462;-76
2022/05/08 07:22:23;;;;;;;17.27;3.20;;;12.50;99.90;;;;;;5014174;28;20100;-77
2022/05/08 07:24:49;;;;;;;19.92;3.72;;;12.60;99.90;;;;;;5014354;28;20057;-76
2022/05/08 07:27:15;;;;;;;19.48;3.85;;;12.70;99.90;;;;;;5013695;28;20026;-75
2022/05/08 07:29:42;;;;;;;23.30;3.78;;;12.80;99.90;;;;;;5017757;28;20032;-76
2022/05/08 07:32:07;;;;;;;19.52;3.75;;;12.90;99.90;;;;;;5017430;28;20536;-77
2022/05/08 07:37:17;;;;;;;16.33;3.58;;;13.10;99.90;;;;;;5012030;28;20059;-75
2022/05/08 07:39:42;;;;;;;21.50;3.80;;;13.30;99.90;;;;;;5013572;28;20030;-77
2022/05/08 07:42:08;;;;;;;21.27;3.80;;;13.50;99.90;;;;;;5019413;28;20030;-76
2022/05/08 07:44:34;;;;;;;21.02;3.75;;;13.50;99.90;;;;;;5014260;28;20026;-76
2022/05/08 07:47:00;;;;;;;13.48;3.35;;;13.60;99.90;;;;;;5015602;28;20041;-78
2022/05/08 07:49:26;;;;;;;15.43;3.03;;;13.70;99.90;;;;;;5025717;28;20067;-78
2022/05/08 07:51:52;;;;;;;15.70;3.45;;;13.80;99.90;;;;;;5021714;28;20458;-76
2022/05/08 07:54:17;;;;;;;16.02;4.15;;;13.90;99.90;;;;;;5035213;28;20029;-79
2022/05/08 07:56:43;;;;;;;16.08;3.53;;;14.00;99.90;;;;;;5040184;28;20033;-76
2022/05/08 07:59:09;;;;;;;19.30;3.75;;;14.00;99.90;;;;;;5035125;28;20018;-74
2022/05/08 08:01:34;;;;;;;16.48;3.83;;;14.20;99.90;;;;;;5039709;28;20022;-77
2022/05/08 08:04:01;;;;;;;19.58;4.32;;;14.30;99.90;;;;;;5029144;28;20029;-74
2022/05/08 08:06:28;;;;;;;18.20;4.07;;;14.40;99.90;;;;;;5034908;28;20029;-75
2022/05/08 08:08:54;;;;;;;22.02;3.65;;;14.50;99.90;;;;;;5037652;28;20034;-74
2022/05/08 08:11:20;;;;;;;15.65;3.55;;;14.60;99.90;;;;;;5034730;28;20029;-77
2022/05/08 08:13:46;;;;;;;14.85;3.47;;;14.70;99.90;;;;;;5030298;28;20025;-75
2022/05/08 08:16:12;;;;;;;16.35;3.95;;;14.80;99.90;;;;;;5025310;28;20017;-75
2022/05/08 08:18:42;;;;;;;14.23;3.25;;;14.90;99.90;;;;;;5026995;28;20350;-74
2022/05/08 08:21:09;;;;;;;17.50;3.75;;;15.00;99.90;;;;;;5020055;28;20057;-77
2022/05/08 08:23:35;;;;;;;16.33;3.45;;;15.10;99.90;;;;;;5020863;28;20115;-75
2022/05/08 08:26:01;;;;;;;18.52;3.40;;;15.10;99.90;;;;;;5019855;28;20064;-75
2022/05/08 08:28:27;;;;;;;17.50;3.38;;;15.20;99.90;;;;;;5017331;28;20021;-75
2022/05/08 08:30:52;;;;;;;19.95;3.70;;;15.40;99.90;;;;;;5025452;28;20029;-75
2022/05/08 08:33:18;;;;;;;16.02;3.20;;;15.40;99.90;;;;;;5024235;28;20477;-76
2022/05/08 08:35:43;;;;;;;18.98;3.65;;;15.30;99.90;;;;;;5027982;28;20481;-76
2022/05/08 08:38:09;;;;;;;16.83;3.30;;;15.30;99.90;;;;;;5022037;28;20018;-76
2022/05/08 08:40:41;;;;;;;18.20;3.63;;;15.30;99.90;;;;;;5030102;28;20017;-75
2022/05/08 08:43:11;;;;;;;16.90;3.78;;;15.40;99.90;;;;;;5025022;28;20089;-76
2022/05/08 08:48:34;;;;;;;15.43;3.00;;;15.70;99.90;;;;;;5020124;28;20033;-78
2022/05/08 08:51:01;;;;;;;15.05;3.30;;;15.80;99.90;;;;;;5019932;28;20432;-79
2022/05/08 08:53:28;;;;;;;14.02;3.22;;;15.90;99.90;;;;;;5026243;28;20039;-81
2022/05/08 08:55:55;;;;;;;20.65;3.40;;;16.00;99.90;;;;;;5026269;28;20462;-80
2022/05/08 08:58:21;;;;;;;16.58;3.17;;;16.10;99.20;;;;;;5025077;28;20077;-79
2022/05/08 09:00:47;;;;;;;14.25;3.38;;;16.10;98.20;;;;;;5029268;28;20690;-80
2022/05/08 09:03:26;;;;;;;16.92;3.45;;;16.10;98.40;;;;;;5027859;28;20401;-80
2022/05/08 09:06:02;;;;;;;16.23;3.13;;;16.20;97.70;;;;;;5023464;28;20041;-81
2022/05/08 09:08:32;;;;;;;13.25;3.28;;;16.20;97.50;;;;;;5029892;28;20037;-80
2022/05/08 09:10:58;;;;;;;11.98;3.10;;;16.30;97.30;;;;;;5025778;28;20470;-79
2022/05/08 09:13:26;;;;;;;19.77;3.90;;;16.40;96.90;;;;;;5023173;28;20029;-79
2022/05/08 09:16:07;;;;;;;17.23;3.50;;;16.50;97.00;;;;;;5023031;28;20028;-79
2022/05/08 09:18:46;;;;;;;11.02;3.10;;;16.70;96.90;;;;;;5019236;28;20647;-79
2022/05/08 09:24:12;;;;;;;19.00;4.32;;;16.90;96.00;;;;;;5018625;28;20033;-79
2022/05/08 09:26:38;;;;;;;15.77;3.35;;;17.00;95.30;;;;;;5017735;28;20109;-79
2022/05/08 09:29:05;;;;;;;13.05;3.30;;;17.10;94.90;;;;;;5020360;28;20497;-79
2022/05/08 09:31:41;;;;;;;16.05;3.35;;;17.10;93.70;;;;;;5017470;28;20117;-79
2022/05/08 09:34:07;;;;;;;12.43;2.95;;;17.10;93.80;;;;;;5018456;28;20030;-79
2022/05/08 09:36:33;;;;;;;18.05;3.55;;;17.20;93.90;;;;;;5014908;28;20030;-79
2022/05/08 09:39:00;;;;;;;15.63;3.40;;;17.40;93.30;;;;;;5013499;28;20049;-78
2022/05/08 09:41:31;;;;;;;15.43;3.50;;;17.40;91.40;;;;;;5013892;28;20025;-84
2022/05/08 09:44:10;;;;;;;13.32;3.20;;;17.50;90.70;;;;;;5010271;28;20034;-84
2022/05/08 09:46:38;;;;;;;13.57;3.38;;;17.60;90.10;;;;;;5013672;28;20020;-82
2022/05/08 09:49:05;;;;;;;19.88;4.38;;;17.70;90.10;;;;;;5011075;28;20413;-82
2022/05/08 09:51:33;;;;;;;15.25;3.78;;;17.80;87.10;;;;;;5019023;28;20420;-82
2022/05/08 09:53:59;;;;;;;15.15;4.53;;;17.80;84.70;;;;;;5027319;28;20018;-81
2022/05/08 09:56:25;;;;;;;16.08;3.28;;;17.90;84.50;;;;;;5010760;28;20425;-81
2022/05/08 09:58:51;;;;;;;13.27;3.08;;;17.90;83.40;;;;;;5010257;28;20064;-78
2022/05/08 10:01:16;;;;;;;13.57;4.50;;;17.90;82.40;;;;;;5011038;28;20482;-76
2022/05/08 10:03:43;;;;;;;11.05;3.03;;;17.90;82.40;;;;;;5013904;28;20113;-78
2022/05/08 10:06:10;;;;;;;12.70;3.17;;;18.10;82.20;;;;;;5025076;28;20017;-77
2022/05/08 10:08:39;;;;;;;11.40;2.25;;;18.20;80.90;;;;;;5014105;28;20478;-77
2022/05/08 10:13:56;;;;;;;7.15;2.50;;;18.40;80.10;;;;;;5049632;28;20039;-77
2022/05/08 10:16:48;;;;;;;10.65;2.78;;;18.40;79.30;;;;;;5025805;28;20097;-76
2022/05/08 10:19:19;;;;;;;11.20;2.88;;;18.40;78.20;;;;;;5034307;28;20033;-78
2022/05/08 10:22:03;;;;;;;10.55;2.72;;;18.40;78.00;;;;;;5021615;28;20548;-79
2022/05/08 10:24:33;;;;;;;10.90;2.25;;;18.50;76.60;;;;;;5038466;28;20032;-78
2022/05/08 10:27:31;;;;;;;9.50;2.13;;;18.40;77.40;;;;;;5026808;28;20057;-77
2022/05/08 10:29:57;;;;;;;11.27;2.50;;;18.60;76.80;;;;;;5025991;28;20021;-79
2022/05/08 10:32:31;;;;;;;11.13;2.78;;;18.60;76.00;;;;;;5028023;28;20020;-77
2022/05/08 10:35:11;;;;;;;11.95;2.58;;;18.70;75.00;;;;;;5029527;28;20030;-81
2022/05/08 10:37:43;;;;;;;10.57;2.90;;;18.80;73.90;;;;;;5017317;28;20112;-78
2022/05/08 10:40:24;;;;;;;9.32;2.40;;;18.80;73.60;;;;;;5013150;28;20402;-79
2022/05/08 10:43:01;;;;;;;9.27;2.10;;;18.90;72.50;;;;;;5020218;28;20022;-79
2022/05/08 10:45:32;;;;;;;10.15;2.30;;;18.90;71.80;;;;;;5015461;28;20454;-78
2022/05/08 10:48:01;;;;;;;8.18;2.30;;;19.00;70.90;;;;;;5017353;28;20100;-75
2022/05/08 10:50:27;;;;;;;9.20;2.22;;;18.90;68.50;;;;;;5014664;28;20056;-76
2022/05/08 10:52:52;;;;;;;11.73;2.30;;;18.70;69.30;;;;;;5015746;28;20088;-75
2022/05/08 10:55:18;;;;;;;8.45;2.38;;;18.70;69.50;;;;;;5013293;28;20021;-75
2022/05/08 10:57:47;;;;;;;9.13;2.15;;;18.60;69.80;;;;;;5028029;28;20022;-77
2022/05/08 11:00:19;;;;;;;8.77;2.33;;;18.70;68.40;;;;;;5015624;28;20132;-77
2022/05/08 11:02:47;;;;;;;8.27;2.17;;;18.70;65.90;;;;;;5026607;28;20083;-75
2022/05/08 11:05:21;;;;;;;9.50;2.30;;;18.60;67.80;;;;;;5030024;28;20105;-74
2022/05/08 11:07:49;;;;;;;10.40;2.53;;;18.50;67.40;;;;;;5036426;28;20021;-75
2022/05/08 11:10:25;;;;;;;6.57;2.13;;;18.40;67.30;;;;;;5024084;28;20700;-73
2022/05/08 11:12:59;;;;;;;12.20;2.78;;;18.40;67.20;;;;;;5032954;28;20018;-73
2022/05/08 11:15:24;;;;;;;8.88;2.15;;;18.40;66.60;;;;;;5024436;28;20548;-74
2022/05/08 11:18:17;;;;;;;10.43;2.50;;;18.30;66.30;;;;;;5034813;28;20022;-75
2022/05/08 11:20:53;;;;;;;11.50;2.10;;;18.30;64.80;;;;;;5030513;28;20061;-73
2022/05/08 11:23:24;;;;;;;11.15;2.60;;;18.40;66.20;;;;;;5022680;28;20038;-74
2022/05/08 11:25:55;;;;;;;8.00;2.45;;;18.50;66.40;;;;;;5015582;28;20393;-74
2022/05/08 11:28:22;;;;;;;10.73;2.25;;;18.70;66.90;;;;;;5030551;28;20410;-74
2022/05/08 11:30:50;;;;;;;6.03;2.22;;;18.80;66.30;;;;;;5042408;28;20437;-75
2022/05/08 11:36:04;;;;;;;7.53;2.05;;;19.30;64.20;;;;;;5037105;28;20060;-75
2022/05/08 11:38:52;;;;;;;7.68;2.20;;;19.30;63.10;;;;;;5029856;28;20033;-74
2022/05/08 11:41:20;;;;;;;13.30;2.40;;;19.10;60.00;;;;;;5028208;28;20101;-74
2022/05/08 11:43:50;;;;;;;11.43;2.50;;;19.00;59.10;;;;;;5022522;28;20059;-76
2022/05/08 11:46:30;;;;;;;8.38;2.20;;;18.80;59.50;;;;;;5022842;28;20021;-74
2022/05/08 11:48:56;;;;;;;11.20;2.10;;;18.70;59.00;;;;;;5028377;28;20028;-75
2022/05/08 11:51:22;;;;;;;7.90;1.80;;;18.60;58.20;;;;;;5037494;28;20045;-76
2022/05/08 11:53:52;;;;;;;9.85;2.42;;;18.50;58.80;;;;;;5040543;28;20029;-76
2022/05/08 11:56:23;;;;;;;6.07;1.90;;;18.60;59.60;;;;;;5034626;28;20355;-76
2022/05/08 11:58:49;;;;;;;10.60;2.72;;;18.70;59.40;;;;;;5032548;28;20026;-77
2022/05/08 12:01:32;;;;;;;9.88;2.70;;;18.70;59.50;;;;;;5029263;28;20061;-76
2022/05/08 12:04:26;;;;;;;8.48;2.30;;;18.60;59.70;;;;;;5039758;28;20040;-76
2022/05/08 12:07:02;;;;;;;11.30;2.58;;;18.70;59.70;;;;;;5037936;28;20041;-77
2022/05/08 12:09:30;;;;;;;13.32;3.00;;;18.60;59.20;;;;;;5033438;28;20049;-77
2022/05/08 12:11:56;;;;;;;9.85;2.28;;;18.50;60.40;;;;;;5049490;28;20025;-76
2022/05/08 12:14:30;;;;;;;8.00;2.40;;;18.50;61.20;;;;;;5028415;28;20033;-77
2022/05/08 12:17:01;;;;;;;7.90;2.30;;;18.50;61.50;;;;;;5026969;28;20566;-76
2022/05/08 12:19:27;;;;;;;8.93;2.35;;;18.60;60.70;;;;;;5025075;28;20045;-77
2022/05/08 12:21:54;;;;;;;6.93;2.22;;;18.70;60.90;;;;;;5032050;28;20036;-77
2022/05/08 12:24:21;;;;;;;7.22;2.42;;;18.80;60.70;;;;;;5030184;28;20036;-76
2022/05/08 12:26:47;;;;;;;16.35;2.70;;;18.80;59.90;;;;;;5033358;28;20087;-77
2022/05/08 12:29:19;;;;;;;8.05;2.50;;;18.90;60.00;;;;;;5028245;28;20010;-76
2022/05/08 12:31:45;;;;;;;5.75;2.13;;;18.90;59.60;;;;;;5029522;28;20022;-79
2022/05/08 12:34:12;;;;;;;10.35;2.50;;;19.00;60.20;;;;;;5030473;28;20381;-78
2022/05/08 12:36:41;;;;;;;8.77;2.50;;;19.10;59.70;;;;;;5040825;28;20070;-77
2022/05/08 12:39:09;;;;;;;7.22;2.47;;;19.10;58.90;;;;;;5033353;28;20021;-77
2022/05/08 12:41:34;;;;;;;7.68;2.08;;;19.00;59.10;;;;;;5026680;28;20061;-77
2022/05/08 12:44:01;;;;;;;8.23;2.30;;;19.00;59.40;;;;;;5031341;28;20559;-77
2022/05/08 12:46:27;;;;;;;11.40;2.47;;;19.10;59.00;;;;;;5018523;28;20390;-76
2022/05/08 12:48:53;;;;;;;7.43;2.20;;;19.20;59.10;;;;;;5027857;28;20026;-77
2022/05/08 12:51:19;;;;;;;10.50;2.78;;;19.40;59.00;;;;;;5029023;28;20026;-76
2022/05/08 12:53:44;;;;;;;9.90;2.42;;;19.50;59.10;;;;;;5033625;28;20055;-77
2022/05/08 12:56:10;;;;;;;8.82;2.13;;;19.70;58.70;;;;;;5033227;28;20032;-77
2022/05/08 13:01:20;;;;;;;6.97;2.20;;;19.90;57.50;;;;;;5024031;28;20536;-77
2022/05/08 13:03:46;;;;;;;6.70;2.28;;;20.00;57.10;;;;;;5020841;28;20030;-77
2022/05/08 13:06:11;;;;;;;8.07;2.42;;;20.00;56.40;;;;;;5020096;28;20026;-77
2022/05/08 13:08:38;;;;;;;9.00;2.17;;;20.00;56.10;;;;;;5034571;28;20025;-76
2022/05/08 13:11:04;;;;;;;8.70;2.05;;;20.00;56.00;;;;;;5032141;28;20017;-77